Date,TemperatureHighF,TemperatureAvgF,TemperatureLowF,DewpointHighF,DewpointAvgF,DewpointLowF,HumidityHigh,HumidityAvg,HumidityLow,PressureMaxIn,PressureMinIn,WindSpeedMaxMPH,WindSpeedAvgMPH,GustSpeedMaxMPH,PrecipitationSumIn
2013-3-3,47.4,42.3,37.0,30.9,29.1,27.7,70,60,52,29.47,29.40,8,5,8,0.00
2013-3-4,52.3,42.3,33.6,37.7,32.5,27.0,85,69,55,29.56,29.27,15,4,15,0.00
2013-3-5,37.0,33.1,27.1,30.6,24.7,15.9,88,72,54,29.89,29.55,22,7,22,0.02
2013-3-6,42.6,33.0,23.5,26.8,21.4,15.5,72,63,52,30.01,29.86,10,2,10,0.00
2013-3-7,50.7,38.5,23.9,36.4,28.8,18.3,79,68,57,29.85,29.71,14,4,14,0.00
2013-3-8,58.4,51.0,37.4,45.0,39.7,30.5,76,65,59,29.78,29.57,16,7,16,0.00
2013-3-9,57.2,50.4,45.6,53.5,43.3,38.2,91,77,66,29.58,29.21,13,4,13,0.59
2013-3-10,53.9,39.4,27.1,51.0,36.4,22.1,92,89,82,29.50,29.19,18,4,18,0.00
2013-3-11,38.3,28.6,24.6,24.9,21.6,19.9,83,75,54,29.61,29.45,16,5,16,0.00
2013-3-12,48.0,37.0,29.3,29.9,24.3,20.1,78,61,37,29.92,29.59,22,5,22,0.00
2013-3-13,48.7,34.3,23.7,28.3,21.9,17.4,77,62,42,30.06,29.92,12,3,12,0.00
2013-3-14,72.5,56.8,35.4,45.7,37.2,22.9,62,49,34,29.77,29.65,18,5,18,0.00
2013-3-15,67.8,51.2,42.4,49.5,40.1,32.8,71,66,53,29.55,29.44,8,2,8,0.00
2013-3-22,33.0,32.8,32.7,29.0,28.6,28.1,85,84,83,29.60,29.54,2,0,2,0.00
2013-3-23,38.4,33.8,32.1,32.0,29.4,28.1,89,84,73,29.61,29.42,11,0,11,0.00
2013-3-24,32.7,29.9,0.0,29.8,24.0,-7.1,89,78,71,29.65,29.39,22,4,22,0.04
2013-3-25,35.4,30.2,23.7,24.7,22.9,19.0,83,75,62,29.90,29.68,17,6,17,0.06
2013-3-26,39.7,24.8,19.9,24.7,17.6,15.5,83,75,52,29.94,29.57,4,0,4,0.00
2013-3-27,52.1,41.5,28.2,38.5,31.0,21.9,78,67,54,29.88,29.77,11,3,11,0.00
2013-3-28,65.1,42.0,35.6,47.0,33.6,29.6,79,73,50,29.78,29.72,7,0,7,0.00
2013-3-29,70.5,59.6,42.6,50.2,45.3,36.8,82,61,43,29.80,29.68,14,2,14,0.00
2013-3-30,65.8,55.7,0.0,57.3,48.0,-4.4,89,76,66,29.69,29.46,10,0,10,0.02
2013-3-31,63.3,51.8,0.0,49.6,40.4,-20.3,89,68,37,29.58,29.52,19,1,19,0.00
2013-4-1,47.6,41.4,34.1,32.4,23.8,17.1,74,51,35,29.87,29.57,15,4,15,0.00
2013-4-2,52.8,37.1,30.5,29.9,21.9,17.8,63,54,39,29.92,29.83,10,1,10,0.00
2013-4-3,53.9,41.3,31.8,31.3,26.0,21.1,67,55,42,29.94,29.85,13,3,13,0.00
2013-4-4,60.9,46.8,38.4,32.7,28.1,25.3,60,49,34,29.78,29.67,11,2,11,0.00
2013-4-5,70.3,48.1,38.8,44.9,33.8,28.7,67,59,40,29.72,29.48,12,2,12,0.00
2013-4-6,77.1,61.2,0.0,52.7,43.6,-16.9,62,53,34,29.48,29.29,22,7,22,0.00
2013-4-7,70.8,59.4,51.0,51.9,45.0,39.2,78,59,49,29.48,29.29,11,2,11,0.06
2013-4-8,72.8,66.7,56.4,62.4,58.9,52.9,88,76,68,29.35,29.29,14,2,14,0.00
2013-4-9,72.3,68.0,0.0,62.8,59.9,-3.2,86,76,71,29.39,29.30,16,4,16,0.22
2013-4-10,47.4,40.4,38.8,44.7,37.7,35.8,91,90,88,29.54,29.35,14,4,14,0.57
2013-4-11,41.1,36.9,32.7,30.7,28.9,27.2,86,73,65,29.40,29.32,14,3,14,0.00
2013-4-12,53.4,43.4,30.7,35.5,31.4,25.6,81,63,48,29.63,29.44,13,3,13,0.00
2013-4-13,67.2,47.8,34.3,47.9,36.4,27.4,80,66,48,29.65,29.33,13,1,13,0.00
2013-4-14,73.2,65.4,53.9,55.2,50.0,38.4,74,58,49,29.35,29.09,18,5,18,0.12
2013-4-15,55.4,49.2,45.6,41.6,36.9,33.7,79,63,51,29.58,29.34,7,1,7,0.13
2013-4-16,47.1,44.8,42.0,37.9,35.8,33.8,77,71,62,29.72,29.64,9,2,9,0.00
2013-4-17,55.4,50.0,0.0,52.6,47.6,-2.0,91,90,77,29.65,29.27,8,1,8,0.15
2013-4-18,38.8,38.2,37.2,36.0,32.7,31.7,91,81,77,29.43,29.23,16,7,16,0.00
2013-4-19,52.5,41.6,38.3,31.7,30.9,24.7,77,68,37,29.67,29.43,14,6,14,0.00
2013-4-20,61.8,51.9,33.6,40.5,35.5,24.4,70,54,44,29.84,29.72,9,2,9,0.00
2013-4-21,67.8,59.5,48.3,47.2,42.6,38.8,70,54,43,29.82,29.71,10,2,10,0.00
2013-4-22,67.8,59.2,48.3,48.4,44.3,38.2,76,58,47,29.74,29.50,10,2,10,0.04
2013-4-23,49.1,37.6,0.0,43.7,33.9,-4.0,88,87,79,29.77,29.58,20,5,20,0.50
2013-4-24,54.3,41.2,29.3,35.7,30.5,24.7,89,67,47,29.86,29.74,11,2,11,0.02
2013-4-25,70.3,58.1,34.8,45.5,40.6,28.9,81,54,39,29.90,29.74,10,1,10,0.00
2013-4-26,55.2,51.2,47.8,47.3,44.9,38.5,89,79,57,29.82,29.74,20,4,20,0.31
2013-4-27,54.1,50.2,46.9,49.6,46.5,44.2,90,87,82,29.79,29.61,7,0,7,0.14
2013-4-28,75.0,51.6,42.9,59.4,46.7,40.2,92,84,50,29.61,29.41,8,0,8,0.00
2013-4-29,83.1,73.6,57.9,65.8,60.8,52.1,82,65,54,29.43,29.27,15,2,15,0.00
2013-4-30,84.0,75.4,63.6,59.0,56.0,52.8,74,52,40,29.40,29.28,18,5,18,0.00
2013-5-1,85.2,67.5,43.1,63.6,53.9,37.5,81,63,46,29.77,29.55,20,3,20,0.05
2013-5-2,42.9,37.2,32.3,37.5,33.6,29.8,91,87,81,29.97,29.76,24,4,24,0.16
2013-5-3,38.1,35.9,33.2,34.3,32.5,30.8,91,88,80,29.90,29.50,20,3,20,0.39
2013-5-4,48.9,40.7,32.7,43.0,36.7,30.1,92,86,77,29.63,29.45,11,2,11,0.04
2013-5-5,57.0,48.3,42.9,50.1,45.0,39.3,92,89,77,29.71,29.60,16,3,16,0.04
2013-5-6,69.2,57.7,49.1,57.3,51.3,46.3,91,80,64,29.71,29.63,11,2,11,0.00
2013-5-7,78.0,68.3,48.9,57.5,53.3,45.5,90,61,41,29.69,29.58,6,0,6,0.00
2013-5-8,76.6,69.2,57.3,61.2,57.7,51.9,84,67,57,29.62,29.49,16,4,16,0.00
2013-5-9,75.5,67.7,58.1,61.6,58.6,54.2,89,74,56,29.50,29.45,10,1,10,0.67
2013-5-10,67.1,57.3,54.3,55.5,51.5,50.3,90,82,57,29.65,29.52,14,3,14,0.00
2013-5-11,66.3,53.3,47.1,48.9,40.7,28.3,85,66,30,29.84,29.64,19,2,19,0.00
2013-5-12,69.4,54.4,38.4,41.8,34.3,27.3,66,48,32,29.87,29.73,7,0,7,0.00
2013-5-13,81.3,61.6,47.8,58.2,47.3,38.6,85,61,43,29.76,29.55,9,1,9,0.00
2013-5-14,92.4,76.1,60.2,59.3,54.6,50.5,76,51,30,29.55,29.42,18,2,18,0.00
2013-5-15,88.5,77.5,64.9,68.0,61.7,53.3,70,59,50,29.52,29.44,8,1,8,0.00
2013-5-16,82.9,75.6,62.4,65.7,63.1,57.4,85,66,53,29.50,29.42,7,1,7,0.00
2013-5-18,84.7,79.9,75.2,71.7,69.9,68.5,83,72,64,29.45,29.34,8,2,8,0.00
2013-5-19,83.4,70.6,62.4,71.0,63.9,57.8,90,80,65,29.48,29.21,21,3,21,0.41
2013-5-20,75.3,67.8,63.1,67.2,62.7,59.9,90,84,76,29.38,29.25,8,0,8,0.00
2013-5-21,75.9,64.9,54.8,60.1,53.8,49.1,87,69,51,29.40,29.30,11,1,11,0.00
2013-5-22,68.7,60.3,53.6,54.1,50.6,47.4,81,71,57,29.55,29.34,13,1,13,0.00
2013-5-23,72.1,61.6,52.1,57.6,51.6,46.8,83,70,58,29.82,29.55,11,1,11,0.00
2013-5-24,74.4,64.3,50.1,55.1,51.5,45.1,88,65,51,29.90,29.80,14,1,14,0.00
2013-5-25,84.0,75.0,60.9,67.1,60.0,51.6,73,60,51,29.84,29.61,8,2,8,0.00
2013-5-27,81.1,73.6,63.1,71.8,66.4,60.3,91,79,68,29.54,29.29,14,2,14,0.90
2013-5-28,74.1,71.9,70.5,65.8,65.2,64.5,82,80,75,29.33,29.26,14,1,14,0.00
2013-6-1,63.5,61.0,59.5,54.3,53.1,52.5,79,75,72,29.58,29.55,10,0,10,0.00
2013-6-2,68.3,59.5,54.8,53.2,50.3,48.7,81,72,55,29.70,29.58,12,2,12,0.00
2013-6-3,77.7,67.4,49.2,60.0,55.3,43.9,83,66,52,29.67,29.50,8,2,10,0.00
2013-6-4,77.5,65.7,61.5,67.0,59.1,55.0,86,79,65,29.58,29.47,15,2,15,0.00
2013-6-5,69.6,63.4,0.0,65.7,59.6,0.0,91,87,80,29.59,29.51,9,0,9,2.77
2013-6-6,75.5,66.4,57.9,60.4,56.6,53.8,91,73,50,29.58,29.52,13,1,13,0.00
2013-6-7,76.6,71.8,57.9,54.5,53.7,52.8,85,55,46,29.58,29.55,4,2,4,0.00
2013-6-15,90.1,72.2,66.9,76.0,66.3,62.9,89,83,59,29.62,29.51,8,1,8,0.51
2013-6-16,86.7,75.0,66.5,76.4,69.4,63.2,91,83,69,29.58,29.51,6,0,6,0.00
2013-6-17,82.2,73.8,68.1,71.6,66.6,62.3,88,79,67,29.60,29.51,7,0,7,0.00
2013-6-18,89.0,73.4,63.8,71.0,65.0,60.4,90,76,50,29.63,29.57,10,0,10,0.06
2013-6-19,89.4,83.1,65.8,72.3,68.1,62.0,89,62,51,29.64,29.56,0,0,0,0.00
2013-6-20,91.4,80.3,69.6,75.3,69.7,63.7,82,71,57,29.63,29.51,0,0,0,0.00
2013-6-21,93.9,83.8,75.0,75.8,71.8,67.9,84,68,53,29.60,29.53,0,0,0,0.00
2013-6-22,95.1,82.7,73.5,74.8,70.2,66.3,80,67,48,29.61,29.47,0,0,0,0.00
2013-6-23,93.5,83.0,73.9,76.7,71.2,67.5,82,69,50,29.56,29.44,0,0,0,0.00
2013-6-24,92.6,84.7,75.5,74.3,70.1,67.4,77,62,48,29.58,29.41,0,0,0,0.00
2013-6-25,85.6,79.4,76.1,71.1,68.8,67.5,82,70,62,29.51,29.37,2,0,2,0.00
2013-6-26,99.3,89.4,74.8,74.6,68.9,62.4,83,53,24,29.50,29.41,9,1,9,0.00
2013-6-27,84.9,82.1,78.6,76.4,72.1,63.1,76,72,59,29.57,29.50,0,0,0,0.00
2013-6-28,87.0,80.9,69.8,71.2,63.1,0.0,91,57,39,29.56,29.48,15,3,15,0.00
2013-6-29,83.3,74.3,68.3,57.9,57.2,56.5,68,57,41,29.48,29.42,19,5,19,0.00
2013-6-30,78.9,69.6,64.0,59.8,56.6,54.2,78,64,49,29.64,29.50,10,1,10,0.00
2013-7-1,66.7,65.9,65.3,54.5,54.1,53.6,67,66,64,29.65,29.64,0,0,0,0.00
2013-7-7,84.2,81.8,79.1,66.2,65.6,65.0,62,58,54,29.60,29.55,5,0,5,0.00
2013-7-8,99.1,82.3,73.0,73.2,67.6,63.5,74,62,39,29.65,29.59,5,0,5,0.00
2013-7-9,102.7,94.5,78.6,76.5,73.9,69.5,74,53,41,29.62,29.47,12,1,12,0.00
2013-7-10,95.9,89.5,78.8,75.3,70.1,62.3,67,54,34,29.64,29.57,9,1,9,0.00
2013-7-11,92.4,83.8,70.8,64.6,61.6,56.6,69,48,38,29.70,29.58,8,0,8,0.00
2013-7-12,95.1,80.2,66.9,70.2,62.9,56.6,75,57,44,29.66,29.58,10,1,10,0.00
2013-7-13,94.8,83.7,70.5,71.2,64.3,57.7,64,52,45,29.65,29.56,8,0,8,0.00
2013-7-14,92.3,78.7,65.8,64.1,61.1,58.0,78,57,36,29.71,29.60,13,1,13,0.00
2013-7-15,93.9,77.0,68.9,70.5,64.3,58.4,80,66,44,29.79,29.71,10,0,10,0.00
2013-7-16,78.4,76.2,71.9,69.0,68.4,65.4,80,77,74,29.86,29.84,1,0,1,0.00
2013-7-19,100.7,90.2,73.0,70.5,68.0,64.7,78,50,36,29.63,29.48,8,0,8,0.00
2013-7-20,89.2,79.0,71.4,73.4,68.5,65.3,86,71,55,29.55,29.46,8,0,8,0.29
2013-7-21,91.2,78.3,69.9,72.5,69.0,65.8,89,75,53,29.55,29.42,6,0,6,0.02
2013-7-22,89.6,80.4,74.8,72.8,68.8,66.4,85,68,51,29.45,29.39,6,0,6,0.00
2013-7-23,92.1,80.4,71.4,74.2,69.4,64.5,87,70,53,29.53,29.42,9,0,9,0.00
2013-7-24,86.5,74.6,67.8,64.5,60.3,57.5,74,62,43,29.65,29.52,9,0,9,0.00
2013-7-25,87.6,73.1,65.8,66.1,61.5,56.4,79,68,47,29.70,29.61,5,0,5,0.00
2013-7-26,86.1,74.7,68.3,71.8,65.5,56.1,87,74,46,29.66,29.58,7,0,7,0.06
2013-7-27,77.3,67.4,57.7,58.1,53.9,50.5,82,63,44,29.71,29.59,11,1,11,0.00
2013-7-28,74.8,66.3,57.9,56.0,54.5,52.4,84,67,50,29.66,29.62,2,0,2,0.00
2013-7-29,70.8,67.4,61.3,68.4,63.7,56.1,92,88,83,29.69,29.57,6,0,6,0.41
2013-7-30,84.7,76.1,70.8,74.8,71.0,68.4,93,85,71,29.68,29.57,10,1,10,1.12
2013-7-31,82.2,73.8,69.9,69.7,67.2,63.4,90,81,60,29.72,29.64,10,0,10,0.00
2013-8-1,89.4,74.1,65.6,71.4,65.6,60.9,87,76,51,29.72,29.57,5,0,5,0.00
2013-8-2,75.9,73.9,71.2,66.9,66.1,65.4,84,77,71,29.60,29.56,6,0,6,0.06
2013-8-3,74.4,74.4,74.4,68.6,68.6,68.6,82,82,82,29.72,29.72,0,0,0,0.00
2013-8-4,74.3,70.0,66.7,70.8,66.7,63.0,91,90,82,29.75,29.63,4,0,4,0.53
2013-8-5,87.6,79.8,69.4,77.0,73.2,66.9,93,81,69,29.66,29.44,6,0,6,0.00
2013-8-6,89.9,82.7,74.1,78.0,74.4,70.7,89,76,67,29.50,29.40,8,0,8,0.00
2013-8-7,85.8,76.6,69.9,75.7,70.8,65.8,92,83,70,29.56,29.40,10,0,10,0.42
2013-8-8,73.5,71.1,68.1,67.7,65.3,63.1,86,82,79,29.62,29.46,5,0,5,0.00
2013-8-9,73.5,69.7,66.7,68.9,64.8,62.0,87,85,78,29.71,29.58,1,0,1,0.08
2013-8-10,86.9,78.3,64.2,69.6,66.3,61.6,91,68,52,29.79,29.69,8,0,8,0.00
2013-8-11,87.6,74.2,0.0,71.2,64.0,-6.3,82,71,55,29.74,29.62,6,0,6,0.00
2013-8-12,83.4,73.6,68.1,70.4,67.2,64.3,90,81,63,29.66,29.57,9,1,9,0.35
2013-8-13,83.3,76.5,67.6,66.3,63.3,60.3,86,65,51,29.73,29.66,8,0,8,0.00
2013-8-14,82.2,74.2,61.8,62.7,60.0,57.1,85,63,51,29.79,29.70,6,0,6,0.00
2013-8-15,80.4,72.5,62.0,63.0,59.6,54.7,77,65,54,29.73,29.60,8,0,8,0.00
2013-8-16,81.5,72.2,63.1,61.9,58.1,54.1,73,62,51,29.76,29.71,6,0,6,0.00
2013-8-17,76.8,63.6,57.5,60.3,54.5,51.2,81,73,56,29.80,29.71,8,0,8,0.00
2013-8-18,85.2,73.8,60.6,65.8,60.3,53.0,77,64,51,29.77,29.67,7,0,7,0.00
2013-8-19,88.3,75.0,62.7,68.3,63.3,57.3,85,69,50,29.73,29.61,0,0,0,0.00
2013-8-20,91.0,77.9,67.1,70.2,65.1,61.0,81,66,49,29.66,29.60,8,0,8,0.00
2013-8-21,92.3,83.7,67.1,72.5,69.4,61.1,82,63,51,29.70,29.61,6,0,6,0.00
2013-8-22,91.9,83.7,69.6,73.8,70.7,64.1,83,66,54,29.71,29.62,6,0,6,0.00
2013-8-23,93.7,84.5,70.8,72.6,69.3,65.8,85,62,46,29.70,29.62,8,0,8,0.00
2013-8-24,93.3,83.5,72.8,75.0,70.4,65.5,81,66,52,29.75,29.65,1,0,1,0.00
2013-8-25,94.1,79.5,75.3,75.0,68.7,66.9,76,70,54,29.75,29.73,5,0,5,0.00
2013-8-26,93.7,93.6,93.5,73.4,73.3,73.2,52,52,52,29.69,29.68,0,0,0,0.00
2013-8-27,94.4,83.7,69.6,71.4,68.4,64.4,86,62,45,29.69,29.61,0,0,0,0.00
2013-8-28,95.1,82.5,68.3,73.7,69.1,62.5,86,65,48,29.67,29.61,0,0,0,0.00
2013-8-29,97.3,83.6,73.9,75.3,70.9,67.2,81,67,46,29.66,29.57,0,0,0,0.00
2013-8-30,101.6,88.5,73.9,74.6,71.6,68.1,82,59,38,29.59,29.45,0,0,0,0.00
2013-8-31,93.3,84.4,76.6,77.6,71.4,66.9,80,66,54,29.49,29.40,8,0,8,0.14
2013-9-1,84.0,72.2,68.3,70.8,65.5,60.8,89,80,58,29.57,29.38,22,0,22,0.62
2013-9-2,82.9,71.9,61.8,64.5,60.5,57.3,86,69,48,29.66,29.56,11,1,11,0.00
2013-9-3,85.6,73.3,59.9,63.1,59.1,54.1,81,62,45,29.72,29.63,5,0,5,0.00
2013-9-4,87.8,71.1,60.9,64.2,58.4,53.3,79,66,44,29.78,29.67,4,0,4,0.00
2013-9-5,84.5,73.6,63.1,66.6,62.3,56.4,80,69,51,29.81,29.72,5,0,5,0.00
2013-9-6,92.4,83.0,68.5,68.3,65.8,61.4,78,57,44,29.75,29.60,8,0,8,0.00
2013-9-7,98.4,84.2,0.0,72.5,67.2,-5.7,79,59,41,29.62,29.50,5,0,5,0.00
2013-9-8,101.1,85.4,72.8,72.2,68.1,63.7,75,58,38,29.53,29.44,7,0,7,0.00
2013-9-9,97.5,82.0,71.2,69.6,65.4,61.3,77,60,36,29.56,29.49,7,0,7,0.00
2013-9-10,96.6,86.7,70.7,70.2,66.5,62.0,76,52,40,29.68,29.61,8,0,8,0.00
2013-9-11,96.2,83.4,67.2,67.2,63.5,59.8,77,53,34,29.74,29.63,8,0,8,0.00
2013-9-12,84.9,76.2,70.1,70.2,62.9,0.0,84,65,49,29.74,29.66,10,0,10,0.18
2013-9-13,68.1,62.3,57.5,53.2,49.4,47.3,70,63,50,29.78,29.73,0,0,0,0.00
2013-9-14,82.0,69.6,52.7,56.1,51.9,44.0,74,55,41,29.70,29.56,8,1,8,0.00
2013-9-15,88.3,73.8,63.3,66.5,60.7,52.5,78,65,48,29.73,29.55,8,0,8,0.00
2013-9-16,67.2,61.3,59.3,60.2,57.2,56.1,90,86,78,29.85,29.72,6,0,6,0.26
2013-9-17,71.7,63.6,0.0,68.0,60.6,-2.7,92,90,86,29.79,29.59,8,1,8,0.53
2013-9-18,89.2,75.7,66.3,74.1,68.3,63.6,92,79,58,29.60,29.45,11,1,11,0.00
2013-9-19,93.3,80.2,68.5,71.6,67.9,63.8,85,68,46,29.53,29.36,23,1,23,0.51
2013-9-20,69.6,63.5,55.2,53.3,50.3,47.7,83,63,52,29.66,29.57,17,2,17,0.15
2013-9-21,76.8,58.1,50.0,54.4,48.8,45.1,85,73,43,29.65,29.52,6,0,6,0.00
2013-9-22,79.3,63.9,52.3,56.0,50.3,45.6,80,63,42,29.60,29.47,7,0,7,0.00
2013-9-23,79.5,65.3,53.6,57.4,52.1,46.3,81,64,45,29.54,29.39,15,2,15,0.00
2013-9-24,64.0,63.1,62.4,55.9,55.4,55.0,77,76,75,29.45,29.44,0,0,0,0.00
2013-9-25,80.4,69.0,57.3,66.0,61.3,54.7,91,77,60,29.51,29.42,0,0,0,0.00
2013-9-26,87.6,76.4,58.8,64.0,60.9,54.9,87,61,43,29.53,29.46,13,3,13,0.00
2013-9-27,80.9,69.8,66.5,65.3,60.2,58.9,77,72,59,29.58,29.50,9,3,9,0.00
2013-9-28,56.8,56.4,56.1,52.3,51.9,51.6,85,85,85,29.67,29.66,0,0,0,0.00
2013-9-29,74.1,60.6,48.0,56.2,52.0,44.9,91,75,52,29.71,29.57,2,0,2,0.02
2013-9-30,80.2,68.4,50.0,63.1,56.9,45.5,86,68,55,29.53,29.43,7,0,7,0.00
2013-10-1,84.3,71.0,58.8,68.9,62.0,52.7,90,74,57,29.58,29.46,9,0,9,0.00
2013-10-2,86.1,72.5,63.5,71.9,65.0,58.6,89,78,58,29.62,29.49,7,0,7,0.00
2013-10-3,86.5,74.6,68.3,72.6,66.7,63.1,89,77,60,29.50,29.35,9,0,9,0.00
2013-10-4,88.3,75.7,68.7,69.4,65.8,63.5,88,73,50,29.47,29.36,12,2,12,0.04
2013-10-5,66.0,54.3,46.2,61.6,39.4,36.6,86,58,47,29.64,29.52,12,2,12,0.35
2013-10-6,60.9,51.7,42.9,44.5,40.0,33.8,70,65,54,29.59,29.46,17,3,17,0.00
2013-10-7,74.1,57.6,41.9,50.7,43.9,35.8,79,62,41,29.74,29.66,7,0,7,0.00
2013-10-8,77.5,61.6,49.8,52.3,46.8,41.8,76,60,40,29.70,29.62,9,1,9,0.00
2013-10-9,78.6,65.9,51.0,54.2,49.2,44.1,77,57,38,29.70,29.61,11,1,11,0.00
2013-10-10,80.6,64.4,50.1,59.5,51.2,43.5,81,64,46,29.66,29.50,11,1,11,0.00
2013-10-11,73.4,67.1,57.7,63.5,59.7,52.1,82,77,71,29.48,29.38,14,2,14,0.02
2013-10-12,64.9,55.3,48.5,55.5,44.9,39.6,86,69,50,29.84,29.49,11,1,11,0.00
2013-10-13,52.3,49.3,46.5,39.6,37.8,36.5,69,64,61,29.95,29.84,0,0,0,0.00
2013-10-14,66.9,59.4,0.0,56.4,48.1,-3.5,86,67,50,29.78,29.48,18,2,18,0.07
2013-10-15,60.4,53.8,43.8,55.6,44.5,35.9,88,72,52,29.68,29.48,10,2,10,0.18
2013-10-16,58.8,45.5,40.4,42.9,37.0,33.7,80,73,54,29.68,29.59,7,0,7,0.00
2013-10-19,55.5,48.6,45.3,38.2,36.9,35.8,73,64,52,29.51,29.49,0,0,0,0.00
2013-10-20,69.9,50.6,42.0,47.6,40.4,35.9,80,69,45,29.52,29.41,7,0,7,0.00
2013-10-21,56.8,48.9,41.5,36.1,34.8,33.4,76,60,43,29.71,29.63,8,1,8,0.00
2013-10-22,60.9,52.8,42.4,45.6,39.7,33.0,75,62,49,29.68,29.51,12,2,12,0.00
2013-10-23,53.4,44.9,0.0,37.6,33.9,-4.2,82,66,49,29.76,29.63,4,0,4,0.00
2013-10-24,50.9,43.6,35.7,33.4,28.5,24.9,81,56,41,30.02,29.88,8,1,8,0.00
2013-10-25,59.3,45.0,30.2,32.7,28.7,22.3,74,55,35,30.05,29.74,7,0,7,0.00
2013-10-26,59.7,46.2,39.9,43.7,34.2,29.1,78,64,40,29.77,29.66,8,0,8,0.00
2013-10-27,65.8,44.7,32.1,38.7,31.1,25.7,80,62,36,29.75,29.55,5,0,5,0.00
2013-10-28,62.4,57.2,51.9,50.3,47.5,44.9,77,70,63,29.72,29.70,5,0,5,0.00
2013-10-29,62.4,58.8,52.7,59.9,56.1,49.5,92,91,89,29.63,29.52,5,0,5,0.02
2013-10-30,67.1,64.0,60.9,64.3,61.3,58.6,93,91,84,29.51,29.34,11,1,11,1.41
2013-10-31,49.8,49.1,48.3,47.5,46.7,45.3,92,91,89,29.22,29.16,9,0,9,0.12
2013-11-1,59.3,52.7,45.3,42.4,40.2,37.6,75,63,53,29.58,29.40,10,2,10,0.00
2013-11-2,56.1,44.9,39.0,39.3,35.3,31.7,83,70,46,29.80,29.58,8,1,8,0.00
2013-11-3,58.8,45.7,37.4,41.0,35.5,31.1,79,68,49,29.76,29.50,9,2,9,0.00
2013-11-4,58.8,56.3,50.0,48.9,47.0,41.6,76,71,67,29.68,29.48,8,1,8,0.00
2013-11-5,59.1,55.2,53.7,56.8,52.3,50.5,92,90,89,29.66,29.46,5,0,5,0.08
2013-11-6,42.6,40.9,36.8,35.2,34.5,33.0,86,78,74,29.85,29.70,7,3,7,0.00
2013-11-7,52.1,42.4,31.8,34.5,32.1,28.1,89,68,51,29.94,29.90,0,0,0,0.00
2013-11-8,64.2,54.4,35.7,42.6,36.7,28.2,75,53,38,29.85,29.50,18,5,18,0.00
2013-11-9,57.3,49.6,44.7,36.6,34.7,32.8,67,57,45,29.89,29.58,8,1,8,0.00
2013-11-10,59.7,51.9,39.3,38.9,35.2,30.0,70,54,44,29.99,29.84,8,2,8,0.00
2013-11-11,61.7,46.4,27.6,51.4,37.3,18.1,77,70,65,30.18,29.76,64,4,64,0.00
2013-11-12,35.4,27.2,17.2,17.1,13.9,10.5,76,58,44,30.41,30.25,12,2,12,0.00
2013-11-13,45.6,33.8,21.5,22.6,19.2,13.2,70,56,38,30.15,29.83,14,5,14,0.00
2013-11-14,55.4,47.9,42.4,31.8,29.2,27.5,56,49,40,29.66,29.55,14,4,14,0.00
2013-11-15,60.9,49.1,43.5,44.3,35.8,29.4,67,60,54,29.57,29.39,12,3,12,0.00
2013-11-16,69.8,64.2,57.5,58.8,56.9,53.0,85,77,66,29.19,29.04,20,8,20,0.00
2013-11-17,66.0,55.1,44.7,59.7,41.0,29.6,81,60,44,29.67,28.97,23,6,23,0.00
2013-11-18,44.6,38.4,34.7,32.7,30.5,28.1,79,73,63,29.85,29.66,8,1,8,0.00
2013-11-19,52.1,52.0,51.9,29.4,29.2,29.1,42,42,41,29.60,29.60,13,7,13,0.00
2013-11-20,49.6,45.4,41.5,38.7,35.6,28.7,74,69,55,29.57,29.45,12,2,12,0.10
2013-11-21,49.2,42.1,31.6,45.0,38.1,28.5,88,86,80,29.86,29.60,18,2,18,0.20
2013-11-22,29.8,26.7,24.0,24.6,21.9,19.6,84,82,79,30.17,30.05,14,2,14,0.00
2013-11-23,30.0,24.5,16.8,18.3,14.1,7.0,80,65,47,30.33,30.17,10,2,10,0.00
2013-11-24,28.0,21.2,0.0,16.1,10.8,-9.9,73,64,56,30.29,29.90,7,0,7,0.00
2013-11-25,37.0,31.5,26.9,22.6,19.7,16.3,72,61,54,29.84,29.75,7,0,7,0.00
2013-11-26,37.9,29.4,0.0,25.5,20.2,-4.2,83,69,45,29.91,29.73,11,3,11,0.00
2013-11-29,43.5,40.1,38.4,26.1,23.9,22.7,54,52,50,29.86,29.83,5,0,5,0.00
2013-11-30,55.9,47.3,34.7,39.5,34.9,25.5,71,62,54,29.76,29.66,8,1,8,0.00
2013-12-1,58.8,46.6,33.6,43.0,36.9,29.2,85,70,54,29.69,29.46,3,0,3,0.00
2013-12-2,50.7,39.8,35.2,42.7,34.8,30.5,88,82,74,29.46,29.22,0,0,0,0.00
2013-12-3,57.3,48.5,40.4,48.3,43.4,37.7,91,83,71,29.21,29.13,5,0,5,0.00
2013-12-4,41.9,31.8,23.1,38.8,27.5,15.8,90,84,74,29.59,29.15,15,2,15,0.00
2013-12-5,19.0,17.5,16.1,8.7,7.6,6.3,70,65,62,29.91,29.78,18,7,18,0.00
2013-12-6,18.6,14.0,8.9,3.3,0.9,-1.4,63,56,49,30.20,29.97,15,6,15,0.02
2013-12-7,25.8,18.9,8.7,9.7,6.1,-1.3,71,57,49,30.26,29.92,12,2,12,0.00
2013-12-8,24.4,23.0,19.0,18.9,16.9,6.2,83,77,56,29.92,29.55,8,1,8,0.00
2013-12-9,15.2,12.4,10.0,7.5,4.4,1.8,82,70,65,29.91,29.84,8,1,8,0.00
2013-12-10,40.1,26.1,13.2,22.7,14.6,5.6,71,62,49,29.87,29.78,10,2,10,0.00
2013-12-11,28.0,19.5,12.7,16.4,8.0,2.4,73,61,45,30.19,29.80,17,2,17,0.00
2013-12-12,44.4,29.6,12.0,22.1,15.4,1.7,70,56,40,30.17,29.75,16,4,16,0.00
2013-12-13,36.6,32.8,0.0,31.9,28.0,-3.7,87,82,70,29.75,29.43,9,2,9,0.13
2013-12-14,34.3,27.0,18.6,30.8,22.7,14.0,89,84,78,29.81,29.45,17,3,17,0.00
2013-12-15,46.5,30.8,16.8,34.3,23.4,12.5,85,75,61,29.80,29.56,11,2,11,0.00
2013-12-16,58.8,41.4,29.6,35.7,28.6,22.0,74,61,41,29.73,29.55,10,1,10,0.00
2013-12-17,38.3,31.5,26.4,27.2,21.0,18.5,81,66,52,29.86,29.79,4,0,4,0.00
2013-12-18,62.4,44.8,29.3,38.6,30.6,18.9,70,58,41,29.81,29.40,18,5,18,0.00
2013-12-19,55.9,53.5,48.2,49.5,45.3,36.8,82,74,59,29.40,29.24,13,4,13,0.00
2013-12-20,54.3,26.1,20.4,47.9,21.9,16.3,89,84,73,29.53,29.27,18,4,18,0.00
2013-12-21,28.2,24.2,20.8,24.5,19.9,16.6,86,84,82,29.46,29.25,8,1,8,0.00
2013-12-23,15.0,11.9,8.4,7.9,5.3,3.2,80,75,71,30.18,30.08,11,3,11,0.00
2013-12-24,28.5,17.3,5.1,23.9,11.0,-0.2,84,76,71,30.07,29.77,18,5,18,0.02
2013-12-25,39.5,31.5,26.4,30.7,25.9,21.0,88,80,68,29.92,29.81,12,2,12,0.10
2013-12-26,47.6,32.8,22.2,32.4,25.2,18.1,86,74,55,29.92,29.76,14,2,14,0.06
2013-12-27,53.4,36.9,26.0,37.5,29.1,21.6,86,74,54,29.92,29.77,10,1,10,0.00
2013-12-28,54.8,43.5,31.6,35.8,31.5,26.5,81,64,45,29.78,29.48,15,4,15,0.00
2013-12-29,30.9,19.4,10.2,24.2,9.1,-1.3,76,64,50,29.91,29.59,22,8,22,0.00
2013-12-30,30.9,21.1,9.5,14.7,8.0,-1.1,66,57,45,29.87,29.74,12,3,12,0.00
2013-12-31,49.1,31.7,0.0,30.4,19.8,-11.3,76,62,46,29.90,29.64,15,3,15,0.00
2014-1-1,36.1,25.9,11.6,23.7,17.3,6.1,79,70,59,29.82,29.59,17,4,17,0.00
2014-1-2,19.5,10.8,1.5,7.7,1.3,-4.9,76,65,59,30.04,29.93,11,4,12,0.00